createdAt,value
2017-08-20T00:02:17.393Z,75.60
2017-08-20T00:04:45.300Z,75.70
2017-08-20T00:07:12.819Z,75.80
2017-08-20T00:09:40.315Z,75.80
2017-08-20T00:12:07.835Z,75.90
2017-08-20T00:14:36.113Z,76.60
2017-08-20T00:17:04.023Z,76.10
2017-08-20T00:19:32.288Z,75.80
2017-08-20T00:21:59.840Z,75.50
2017-08-20T00:24:27.352Z,75.60
2017-08-20T00:26:55.687Z,76.10
2017-08-20T00:29:23.207Z,75.80
2017-08-20T00:31:51.107Z,75.70
2017-08-20T00:34:18.635Z,75.90
2017-08-20T00:36:46.135Z,75.80
2017-08-20T00:39:15.160Z,76.40
2017-08-20T00:41:42.663Z,75.50
2017-08-20T00:44:10.179Z,75.10
2017-08-20T00:46:37.692Z,75.00
2017-08-20T00:49:05.335Z,75.20
2017-08-20T00:51:32.867Z,74.90
2017-08-20T00:54:00.388Z,74.60
2017-08-20T00:56:27.895Z,74.60
2017-08-20T00:58:55.398Z,74.80
2017-08-20T01:01:23.324Z,74.60
2017-08-20T01:03:50.823Z,74.70
2017-08-20T01:08:47.580Z,75.20
2017-08-20T01:11:15.105Z,75.50
2017-08-20T01:13:42.603Z,75.80
2017-08-20T01:16:10.119Z,75.80
2017-08-20T01:18:37.624Z,75.90
2017-08-20T01:21:06.291Z,76.10
2017-08-20T01:23:33.795Z,76.20
2017-08-20T01:26:02.440Z,76.30
2017-08-20T01:28:29.967Z,76.30
2017-08-20T01:33:26.715Z,76.10
2017-08-20T01:35:55.351Z,75.70
2017-08-20T01:38:22.866Z,75.50
2017-08-20T01:40:50.367Z,75.60
2017-08-20T01:43:17.883Z,75.60
2017-08-20T01:45:45.388Z,75.50
2017-08-20T01:48:12.910Z,75.40
2017-08-20T01:50:40.427Z,75.20
2017-08-20T01:53:08.344Z,75.10
2017-08-20T01:55:36.603Z,75.20
2017-08-20T01:58:04.535Z,75.20
2017-08-20T02:00:44.626Z,75.90
2017-08-20T02:03:12.162Z,75.30
2017-08-20T02:05:39.675Z,75.30
2017-08-20T02:08:07.174Z,75.30
2017-08-20T02:10:34.698Z,75.00
2017-08-20T02:13:02.964Z,76.30
2017-08-20T02:15:31.254Z,75.30
2017-08-20T02:17:59.150Z,75.00
2017-08-20T02:20:27.435Z,74.90
2017-08-20T02:22:54.947Z,75.00
2017-08-20T02:25:23.231Z,74.90
2017-08-20T02:27:51.496Z,75.30
2017-08-20T02:30:20.424Z,75.40
2017-08-20T02:32:47.918Z,74.90
2017-08-20T02:35:15.454Z,74.90
2017-08-20T02:37:42.966Z,75.20
2017-08-20T02:40:10.870Z,75.00
2017-08-20T02:42:39.153Z,75.20
2017-08-20T02:45:07.051Z,75.20
2017-08-20T02:47:35.711Z,74.80
2017-08-20T02:50:03.231Z,74.70
2017-08-20T02:52:30.757Z,74.90
2017-08-20T02:57:27.915Z,74.70
2017-08-20T02:59:55.416Z,74.50
2017-08-20T03:02:22.927Z,74.70
2017-08-20T03:04:50.431Z,74.80
2017-08-20T03:07:17.951Z,74.90
2017-08-20T03:09:45.452Z,75.00
2017-08-20T03:12:12.952Z,75.00
2017-08-20T03:14:40.863Z,75.10
2017-08-20T03:17:08.369Z,75.20
2017-08-20T03:19:36.274Z,75.20
2017-08-20T03:22:03.784Z,75.10
2017-08-20T03:24:31.313Z,74.90
2017-08-20T03:29:27.682Z,75.30
2017-08-20T03:31:55.170Z,75.40
2017-08-20T03:36:51.551Z,75.10
2017-08-20T03:39:19.069Z,75.30
2017-08-20T03:41:46.571Z,75.20
2017-08-20T03:44:14.106Z,75.50
2017-08-20T03:46:41.606Z,75.30
2017-08-20T03:49:09.099Z,75.20
2017-08-20T03:51:38.120Z,75.20
2017-08-20T03:54:05.615Z,75.10
2017-08-20T03:59:02.749Z,75.60
2017-08-20T04:01:31.766Z,74.80
2017-08-20T04:03:59.275Z,75.10
2017-08-20T04:06:26.799Z,75.10
2017-08-20T04:08:54.300Z,74.90
2017-08-20T04:11:21.816Z,74.70
2017-08-20T04:13:49.307Z,74.60
2017-08-20T04:16:16.823Z,74.50
2017-08-20T04:18:44.718Z,74.50
2017-08-20T04:21:12.236Z,74.50
2017-08-20T04:23:39.743Z,74.50
2017-08-20T04:26:08.795Z,74.30
2017-08-20T04:28:36.288Z,74.60
2017-08-20T04:31:04.552Z,74.90
2017-08-20T04:33:32.072Z,74.30
2017-08-20T04:36:00.331Z,74.40
2017-08-20T04:38:27.854Z,74.20
2017-08-20T04:40:55.355Z,74.30
2017-08-20T04:43:22.879Z,74.20
2017-08-20T04:45:50.371Z,74.30
2017-08-20T04:48:18.650Z,74.40
2017-08-20T04:50:46.539Z,74.70
2017-08-20T04:53:14.072Z,74.40
2017-08-20T04:55:41.575Z,74.60
2017-08-20T04:58:09.099Z,74.20
2017-08-20T05:00:36.590Z,74.30
2017-08-20T05:03:04.143Z,74.40
2017-08-20T05:05:31.638Z,74.20
2017-08-20T05:08:00.663Z,74.40
2017-08-20T05:10:28.582Z,74.30
2017-08-20T05:12:56.103Z,74.40
2017-08-20T05:15:23.623Z,74.60
2017-08-20T05:17:51.120Z,74.70
2017-08-20T05:20:18.636Z,74.80
2017-08-20T05:22:46.132Z,74.80
2017-08-20T05:25:13.646Z,74.40
2017-08-20T05:27:41.919Z,74.40
2017-08-20T05:30:09.438Z,74.60
2017-08-20T05:32:36.939Z,74.70
2017-08-20T05:35:05.971Z,75.20
2017-08-20T05:37:33.462Z,74.30
2017-08-20T05:40:01.351Z,74.60
2017-08-20T05:42:28.862Z,74.60
2017-08-20T05:44:56.356Z,74.70
2017-08-20T05:47:23.876Z,74.40
2017-08-20T05:49:51.384Z,74.30
2017-08-20T05:52:19.305Z,74.20
2017-08-20T05:54:46.808Z,74.20
2017-08-20T05:57:15.090Z,74.70
2017-08-20T05:59:43.356Z,74.80
2017-08-20T06:02:11.634Z,75.00
2017-08-20T06:04:39.519Z,74.30
2017-08-20T06:07:07.053Z,74.30
2017-08-20T06:09:34.948Z,74.30
2017-08-20T06:12:03.207Z,74.10
2017-08-20T06:14:32.223Z,74.00
2017-08-20T06:16:59.732Z,74.00
2017-08-20T06:19:27.247Z,73.90
2017-08-20T06:21:55.610Z,73.90
2017-08-20T06:24:23.119Z,73.20
2017-08-20T06:26:50.623Z,73.60
2017-08-20T06:29:18.136Z,74.90
2017-08-20T06:31:46.408Z,72.60
2017-08-20T06:34:14.706Z,71.00
2017-08-20T06:36:42.210Z,66.70
2017-08-20T06:39:09.756Z,63.30
2017-08-20T06:41:37.251Z,59.70
2017-08-20T06:44:05.147Z,58.70
2017-08-20T06:46:32.668Z,57.90
2017-08-20T06:51:29.803Z,53.70
2017-08-20T06:53:57.710Z,53.70
2017-08-20T06:56:25.223Z,52.30
2017-08-20T06:58:52.764Z,50.70
2017-08-20T07:01:20.274Z,51.30
2017-08-20T07:03:47.773Z,51.20
2017-08-20T07:06:15.678Z,51.40
2017-08-20T07:08:43.943Z,52.70
2017-08-20T07:11:12.230Z,52.70
2017-08-20T07:13:39.722Z,53.60
2017-08-20T07:16:07.227Z,54.30
2017-08-20T07:18:34.747Z,55.30
2017-08-20T07:21:03.051Z,55.90
2017-08-20T07:23:31.336Z,56.60
2017-08-20T07:26:00.050Z,56.50
2017-08-20T07:28:27.569Z,57.10
2017-08-20T07:30:55.844Z,58.20
2017-08-20T07:33:23.373Z,58.40
2017-08-20T07:35:50.879Z,59.00
2017-08-20T07:38:18.391Z,59.70
2017-08-20T07:40:47.025Z,60.50
2017-08-20T07:43:14.581Z,60.90
2017-08-20T07:45:42.075Z,60.80
2017-08-20T07:48:09.599Z,61.00
2017-08-20T07:50:37.095Z,61.50
2017-08-20T07:53:06.102Z,61.30
2017-08-20T07:55:33.610Z,61.10
2017-08-20T07:58:02.247Z,60.80
2017-08-20T08:00:29.779Z,59.80
2017-08-20T08:02:57.671Z,59.50
2017-08-20T08:05:25.205Z,59.40
2017-08-20T08:07:53.850Z,58.10
2017-08-20T08:10:21.391Z,57.70
2017-08-20T08:12:50.403Z,57.00
2017-08-20T08:15:18.691Z,57.30
2017-08-20T08:20:16.575Z,57.40
2017-08-20T08:22:44.844Z,56.90
2017-08-20T08:25:12.344Z,56.70
2017-08-20T08:27:39.871Z,55.80
2017-08-20T08:32:36.739Z,57.30
2017-08-20T08:35:04.243Z,59.20
2017-08-20T08:37:31.768Z,58.50
2017-08-20T08:39:59.267Z,55.60
2017-08-20T08:42:26.796Z,56.40
2017-08-20T08:44:54.299Z,54.40
2017-08-20T08:47:22.602Z,52.40
2017-08-20T08:49:50.119Z,51.00
2017-08-20T08:52:17.615Z,51.20
2017-08-20T08:54:45.136Z,52.30
2017-08-20T08:57:12.641Z,53.20
2017-08-20T08:59:40.922Z,52.00
2017-08-20T09:02:08.431Z,50.70
2017-08-20T09:04:35.950Z,51.40
2017-08-20T09:07:03.481Z,51.90
2017-08-20T09:09:31.002Z,52.90
2017-08-20T09:11:58.503Z,53.90
2017-08-20T09:14:26.427Z,54.20
2017-08-20T09:16:53.942Z,54.20
2017-08-20T09:19:21.478Z,52.60
2017-08-20T09:21:48.983Z,50.40
2017-08-20T09:24:16.493Z,48.60
2017-08-20T09:26:44.023Z,47.40
2017-08-20T09:29:12.291Z,45.60
2017-08-20T09:31:39.822Z,45.70
2017-08-20T09:34:07.319Z,46.00
2017-08-20T09:36:36.345Z,46.40
2017-08-20T09:39:03.851Z,47.50
2017-08-20T09:41:32.142Z,49.60
2017-08-20T09:44:01.143Z,51.30
2017-08-20T09:46:29.600Z,51.30
2017-08-20T09:48:57.110Z,51.20
2017-08-20T09:53:53.572Z,48.30
2017-08-20T09:56:21.251Z,46.60
2017-08-20T09:58:48.763Z,46.80
2017-08-20T10:01:16.266Z,47.10
2017-08-20T10:03:43.779Z,48.20
2017-08-20T10:06:11.271Z,48.60
2017-08-20T10:08:38.784Z,50.20
2017-08-20T10:11:06.276Z,51.30
2017-08-20T10:13:33.831Z,50.10
2017-08-20T10:16:01.334Z,49.70
2017-08-20T10:18:29.248Z,47.30
2017-08-20T10:20:56.747Z,46.60
2017-08-20T10:23:24.277Z,47.10
2017-08-20T10:25:51.779Z,46.20
2017-08-20T10:28:19.398Z,46.10
2017-08-20T10:30:47.307Z,44.80
2017-08-20T10:33:15.194Z,44.40
2017-08-20T10:35:43.475Z,45.00
2017-08-20T10:38:10.963Z,43.60
2017-08-20T10:40:38.479Z,44.20
2017-08-20T10:43:05.983Z,45.80
2017-08-20T10:45:33.507Z,46.60
2017-08-20T10:48:01.006Z,46.00
2017-08-20T10:50:28.522Z,46.60
2017-08-20T10:52:56.018Z,47.00
2017-08-20T10:55:23.935Z,47.10
2017-08-20T10:57:51.822Z,48.50
2017-08-20T11:00:20.125Z,48.60
2017-08-20T11:02:47.624Z,49.60
2017-08-20T11:05:15.120Z,49.70
2017-08-20T11:07:42.635Z,49.60
2017-08-20T11:10:10.127Z,50.20
2017-08-20T11:12:37.656Z,50.00
2017-08-20T11:15:05.155Z,50.60
2017-08-20T11:17:33.439Z,50.40
2017-08-20T11:20:01.702Z,52.10
2017-08-20T11:22:29.227Z,50.60
2017-08-20T11:24:56.719Z,50.70
2017-08-20T11:27:24.252Z,50.20
2017-08-20T11:29:51.849Z,50.90
2017-08-20T11:32:19.396Z,51.50
2017-08-20T11:34:48.023Z,51.60
2017-08-20T11:37:15.515Z,51.10
2017-08-20T11:39:44.536Z,51.30
2017-08-20T11:42:13.535Z,50.40
2017-08-20T11:44:41.058Z,51.00
2017-08-20T11:47:08.564Z,51.00
2017-08-20T11:49:36.107Z,51.30
2017-08-20T11:52:04.381Z,51.70
2017-08-20T11:54:31.915Z,51.40
2017-08-20T11:56:59.432Z,51.90
2017-08-20T11:59:27.718Z,50.30
2017-08-20T12:01:55.614Z,50.40
2017-08-20T12:04:24.271Z,48.10
2017-08-20T12:06:51.783Z,49.90
2017-08-20T12:09:20.043Z,50.00
2017-08-20T12:11:47.568Z,49.50
2017-08-20T12:14:15.084Z,48.80
2017-08-20T12:16:42.621Z,49.20
2017-08-20T12:19:10.125Z,48.70
2017-08-20T12:24:06.492Z,49.10
2017-08-20T12:29:02.871Z,48.70
2017-08-20T12:31:30.404Z,48.50
2017-08-20T12:33:57.915Z,49.10
2017-08-20T12:36:25.823Z,50.20
2017-08-20T12:38:53.718Z,50.00
2017-08-20T12:43:50.095Z,48.30
2017-08-20T12:46:17.599Z,48.50
2017-08-20T12:48:45.126Z,48.90
2017-08-20T12:51:12.622Z,49.60
2017-08-20T12:53:40.135Z,50.50
2017-08-20T12:56:08.764Z,50.90
2017-08-20T12:58:37.415Z,50.90
2017-08-20T13:01:04.931Z,50.80
2017-08-20T13:03:32.454Z,50.00
2017-08-20T13:05:59.950Z,48.00
2017-08-20T13:08:27.873Z,49.80
2017-08-20T13:10:55.376Z,48.80
2017-08-20T13:18:20.619Z,48.60
2017-08-20T13:20:48.143Z,48.80
2017-08-20T13:23:15.638Z,48.50
2017-08-20T13:25:43.557Z,48.30
2017-08-20T13:28:11.063Z,48.30
2017-08-20T13:30:39.715Z,49.40
2017-08-20T13:33:07.979Z,48.70
2017-08-20T13:35:35.510Z,47.00
2017-08-20T13:38:03.011Z,48.20
2017-08-20T13:40:31.293Z,47.50
2017-08-20T13:42:59.193Z,46.20
2017-08-20T13:45:26.744Z,45.60
2017-08-20T13:47:54.262Z,46.60
2017-08-20T13:50:22.522Z,47.30
2017-08-20T13:52:50.043Z,47.10
2017-08-20T13:55:17.539Z,47.20
2017-08-20T13:57:45.826Z,48.00
2017-08-20T14:00:13.337Z,48.20
2017-08-20T14:02:40.856Z,48.40
2017-08-20T14:05:09.127Z,48.50
2017-08-20T14:07:36.656Z,48.20
2017-08-20T14:10:04.927Z,47.40
2017-08-20T14:12:33.215Z,47.60
2017-08-20T14:15:01.486Z,47.40
2017-08-20T14:17:29.011Z,47.50
2017-08-20T14:19:56.504Z,48.10
2017-08-20T14:22:25.143Z,48.10
2017-08-20T14:24:52.669Z,47.00
2017-08-20T14:29:49.031Z,47.10
2017-08-20T14:32:16.930Z,48.20
2017-08-20T14:34:44.454Z,48.40
2017-08-20T14:37:13.097Z,48.70
2017-08-20T14:39:40.623Z,49.30
2017-08-20T14:42:08.149Z,49.20
2017-08-20T14:44:35.677Z,49.20
2017-08-20T14:47:03.179Z,49.00
2017-08-20T14:49:30.712Z,49.20
2017-08-20T14:51:59.001Z,49.90
2017-08-20T14:54:26.503Z,50.10
2017-08-20T14:56:54.782Z,50.10
2017-08-20T14:59:23.055Z,50.00
2017-08-20T15:01:50.574Z,50.40
2017-08-20T15:04:18.075Z,50.40
2017-08-20T15:06:46.350Z,50.40
2017-08-20T15:09:13.867Z,49.80
2017-08-20T15:11:41.414Z,50.00
2017-08-20T15:14:08.923Z,49.30
2017-08-20T15:16:36.754Z,49.90
2017-08-20T15:19:04.285Z,49.90
2017-08-20T15:21:31.787Z,49.30
2017-08-20T15:23:59.306Z,48.60
2017-08-20T15:26:26.827Z,48.70
2017-08-20T15:28:54.427Z,49.00
2017-08-20T15:31:21.944Z,47.50
2017-08-20T15:33:49.476Z,47.50
2017-08-20T15:36:16.971Z,46.90
2017-08-20T15:38:45.235Z,47.90
2017-08-20T15:41:12.755Z,47.20
2017-08-20T15:43:40.259Z,47.50
2017-08-20T15:46:08.539Z,48.20
2017-08-20T15:48:36.043Z,47.60
2017-08-20T15:51:03.576Z,47.60
2017-08-20T15:53:31.284Z,48.20
2017-08-20T15:55:58.803Z,48.80
2017-08-20T15:58:26.694Z,47.40
2017-08-20T16:00:54.614Z,47.80
2017-08-20T16:03:22.121Z,47.70
2017-08-20T16:05:49.655Z,47.50
2017-08-20T16:08:17.167Z,47.90
2017-08-20T16:10:44.674Z,48.00
2017-08-20T16:13:12.203Z,48.30
2017-08-20T16:15:39.720Z,49.00
2017-08-20T16:18:07.631Z,49.10
2017-08-20T16:20:35.143Z,49.40
2017-08-20T16:23:02.667Z,49.60
2017-08-20T16:25:30.171Z,50.20
2017-08-20T16:27:57.695Z,49.60
2017-08-20T16:30:25.959Z,49.90
2017-08-20T16:32:53.461Z,49.80
2017-08-20T16:35:20.999Z,50.00
2017-08-20T16:37:48.529Z,50.20
2017-08-20T16:40:17.543Z,50.00
2017-08-20T16:42:45.035Z,50.40
2017-08-20T16:45:13.316Z,50.40
2017-08-20T16:47:40.824Z,50.50
2017-08-20T16:50:08.355Z,50.50
2017-08-20T16:52:35.851Z,50.80
2017-08-20T16:55:03.759Z,50.90
2017-08-20T16:57:31.315Z,51.40
2017-08-20T16:59:58.838Z,51.10
2017-08-20T17:02:26.338Z,50.40
2017-08-20T17:04:53.847Z,50.70
2017-08-20T17:07:21.371Z,50.90
2017-08-20T17:09:48.871Z,51.60
2017-08-20T17:12:16.402Z,51.80
2017-08-20T17:14:43.903Z,52.10
2017-08-20T17:17:11.425Z,52.60
2017-08-20T17:19:39.317Z,52.70
2017-08-20T17:22:06.835Z,52.80
2017-08-20T17:24:34.340Z,53.00
2017-08-20T17:27:01.855Z,52.90
2017-08-20T17:29:29.375Z,53.00
2017-08-20T17:31:56.879Z,53.30
2017-08-20T17:34:24.404Z,53.40
2017-08-20T17:36:52.307Z,53.50
2017-08-20T17:39:19.827Z,54.20
2017-08-20T17:41:48.471Z,54.40
2017-08-20T17:44:15.994Z,54.70
2017-08-20T17:46:43.501Z,54.70
2017-08-20T17:49:11.796Z,54.70
2017-08-20T17:54:08.183Z,55.00
2017-08-20T17:56:35.674Z,55.30
2017-08-20T17:59:03.176Z,55.50
2017-08-20T18:01:31.454Z,56.00
2017-08-20T18:03:58.950Z,56.20
2017-08-20T18:06:26.466Z,56.30
2017-08-20T18:08:53.970Z,56.90
2017-08-20T18:11:21.495Z,56.90
2017-08-20T18:13:49.007Z,56.80
2017-08-20T18:16:16.532Z,57.60
2017-08-20T18:18:44.076Z,57.50
2017-08-20T18:23:40.479Z,57.40
2017-08-20T18:26:08.003Z,57.60
2017-08-20T18:28:35.520Z,57.70
2017-08-20T18:31:03.421Z,57.80
2017-08-20T18:33:30.945Z,57.70
2017-08-20T18:35:59.947Z,57.90
2017-08-20T18:38:27.463Z,57.80
2017-08-20T18:40:56.095Z,58.10
2017-08-20T18:43:23.617Z,58.40
2017-08-20T18:45:51.114Z,58.50
2017-08-20T18:48:19.034Z,58.80
2017-08-20T18:50:46.536Z,59.00
2017-08-20T18:53:14.071Z,58.90
2017-08-20T18:55:42.332Z,59.20
2017-08-20T18:58:10.603Z,59.20
2017-08-20T19:00:38.899Z,59.70
2017-08-20T19:03:07.571Z,59.70
2017-08-20T19:05:35.877Z,60.80
2017-08-20T19:08:03.380Z,60.30
2017-08-20T19:10:31.299Z,60.30
2017-08-20T19:12:58.804Z,60.30
2017-08-20T19:15:26.320Z,60.30
2017-08-20T19:17:54.219Z,60.40
2017-08-20T19:20:21.751Z,60.70
2017-08-20T19:22:49.251Z,61.10
2017-08-20T19:25:17.522Z,62.00
2017-08-20T19:27:45.802Z,62.20
2017-08-20T19:30:14.823Z,61.70
2017-08-20T19:32:43.107Z,61.90
2017-08-20T19:35:10.604Z,61.90
2017-08-20T19:37:38.120Z,62.00
2017-08-20T19:40:05.615Z,62.30
2017-08-20T19:42:33.136Z,62.30
2017-08-20T19:45:00.630Z,62.30
2017-08-20T19:47:28.931Z,63.30
2017-08-20T19:49:56.427Z,62.60
2017-08-20T19:52:23.957Z,62.60
2017-08-20T19:54:51.484Z,62.80
2017-08-20T19:57:18.978Z,62.60
2017-08-20T19:59:46.499Z,62.60
2017-08-20T20:02:13.995Z,62.60
2017-08-20T20:04:41.519Z,62.80
2017-08-20T20:09:37.926Z,63.30
2017-08-20T20:12:06.567Z,63.50
2017-08-20T20:14:34.115Z,63.60
2017-08-20T20:17:02.760Z,64.30
2017-08-20T20:19:31.065Z,64.70
2017-08-20T20:21:59.323Z,64.10
2017-08-20T20:24:26.820Z,64.20
2017-08-20T20:26:55.868Z,64.20
2017-08-20T20:29:23.371Z,64.10
2017-08-20T20:31:50.883Z,64.30
2017-08-20T20:34:18.383Z,64.30
2017-08-20T20:36:45.895Z,64.30
2017-08-20T20:39:13.395Z,64.10
2017-08-20T20:41:40.918Z,64.00
2017-08-20T20:44:09.184Z,63.90
2017-08-20T20:46:38.219Z,63.90
2017-08-20T20:49:05.975Z,63.90
2017-08-20T20:51:34.644Z,64.00
2017-08-20T20:54:02.149Z,63.80
2017-08-20T20:56:29.644Z,63.80
2017-08-20T20:58:57.163Z,63.80
2017-08-20T21:01:24.661Z,63.70
2017-08-20T21:03:52.956Z,63.90
2017-08-20T21:06:21.956Z,63.80
2017-08-20T21:08:50.181Z,63.70
2017-08-20T21:11:17.678Z,63.80
2017-08-20T21:13:46.329Z,63.90
2017-08-20T21:16:13.823Z,63.90
2017-08-20T21:18:42.113Z,63.90
2017-08-20T21:21:09.933Z,63.50
2017-08-20T21:23:37.862Z,63.70
2017-08-20T21:26:05.355Z,63.70
2017-08-20T21:28:32.855Z,63.60
2017-08-20T21:31:00.379Z,63.80
2017-08-20T21:33:27.871Z,63.80
2017-08-20T21:35:55.391Z,63.90
2017-08-20T21:38:22.887Z,64.00
2017-08-20T21:40:51.547Z,65.40
2017-08-20T21:43:19.043Z,64.40
2017-08-20T21:45:47.323Z,64.40
2017-08-20T21:48:14.835Z,64.20
2017-08-20T21:50:42.340Z,64.70
2017-08-20T21:53:10.148Z,64.70
2017-08-20T21:58:06.539Z,64.70
2017-08-20T22:00:34.038Z,64.70
2017-08-20T22:03:01.577Z,64.80
2017-08-20T22:05:29.071Z,65.10
2017-08-20T22:07:56.590Z,65.20
2017-08-20T22:10:24.098Z,65.40
2017-08-20T22:12:51.615Z,65.50
2017-08-20T22:15:19.108Z,65.70
2017-08-20T22:17:47.032Z,65.70
2017-08-20T22:20:14.533Z,66.00
2017-08-20T22:22:42.422Z,66.10
2017-08-20T22:25:09.935Z,66.10
2017-08-20T22:27:37.431Z,66.30
2017-08-20T22:30:05.757Z,66.50
2017-08-20T22:32:33.243Z,66.60
2017-08-20T22:35:00.758Z,66.60
2017-08-20T22:37:28.252Z,66.60
2017-08-20T22:39:55.774Z,66.50
2017-08-20T22:42:24.039Z,67.10
2017-08-20T22:44:52.335Z,67.10
2017-08-20T22:47:19.827Z,66.60
2017-08-20T22:49:48.455Z,66.70
2017-08-20T22:52:17.103Z,66.80
2017-08-20T22:54:44.595Z,66.90
2017-08-20T22:57:12.874Z,67.40
2017-08-20T22:59:41.507Z,66.90
2017-08-20T23:02:09.787Z,66.90
2017-08-20T23:04:37.279Z,66.80
2017-08-20T23:07:05.559Z,67.50
2017-08-20T23:09:33.055Z,67.00
2017-08-20T23:12:00.568Z,67.10
2017-08-20T23:14:28.063Z,66.90
2017-08-20T23:16:55.588Z,67.00
2017-08-20T23:19:23.103Z,67.20
2017-08-20T23:21:50.600Z,67.20
2017-08-20T23:24:18.119Z,67.30
2017-08-20T23:26:45.610Z,67.30
2017-08-20T23:29:13.122Z,67.60
2017-08-20T23:31:40.622Z,67.30
2017-08-20T23:34:08.136Z,67.50
2017-08-20T23:36:35.630Z,67.60
2017-08-20T23:39:03.912Z,67.30
2017-08-20T23:41:32.549Z,67.40
2017-08-20T23:44:00.458Z,67.50
2017-08-20T23:46:27.979Z,67.70
2017-08-20T23:48:55.513Z,67.70
2017-08-20T23:51:23.007Z,67.80
2017-08-20T23:53:50.503Z,67.90
2017-08-20T23:56:18.785Z,68.10
2017-08-20T23:58:46.278Z,68.10
